Time;durP1;ratioP1;P1;durP2;ratioP2;P2;SDS_P1;SDS_P2;PMS_P1;PMS_P2;Temp;Humidity;BMP_temperature;BMP_pressure;BME280_temperature;BME280_humidity;BME280_pressure;Samples;Min_cycle;Max_cycle;Signal;HPM_P1;HPM_P2
2021/06/16 00:03:05;;;;;;;10.6;8.1;;;;;;;12.29;100;98730.59;;;;
2021/06/16 00:13:04;;;;;;;12.4;8.4;;;;;;;12.16;100;98736.13;;;;
2021/06/16 00:23:02;;;;;;;7.5;5.9;;;;;;;12.33;100;98728.85;;;;
2021/06/16 00:33:01;;;;;;;9.9;5.4;;;;;;;12.56;100;98724.13;;;;
2021/06/16 00:43:01;;;;;;;10.8;6.1;;;;;;;12.63;100;98736.05;;;;
2021/06/16 00:52:59;;;;;;;8.9;5.4;;;;;;;12.41;100;98733.48;;;;
2021/06/16 01:02:58;;;;;;;10.9;6.9;;;;;;;12.3;100;98734.09;;;;
2021/06/16 01:12:56;;;;;;;12.9;7.4;;;;;;;12.11;100;98727.05;;;;
2021/06/16 01:22:55;;;;;;;8.5;5.9;;;;;;;12.05;100;98727.5;;;;
2021/06/16 01:32:54;;;;;;;9.9;5.8;;;;;;;12.31;100;98727.59;;;;
2021/06/16 01:42:53;;;;;;;9.9;6.4;;;;;;;12.4;100;98723.78;;;;
2021/06/16 01:52:51;;;;;;;9.4;5.9;;;;;;;12.2;100;98715.47;;;;
2021/06/16 02:02:50;;;;;;;6.7;5.3;;;;;;;12;100;98725.77;;;;
2021/06/16 02:12:49;;;;;;;7.3;5.4;;;;;;;11.73;100;98736.75;;;;
2021/06/16 02:22:48;;;;;;;8.4;5.5;;;;;;;11.5;100;98729.79;;;;
2021/06/16 02:32:46;;;;;;;9.5;5.4;;;;;;;11.36;100;98726.38;;;;
2021/06/16 02:42:46;;;;;;;9.3;6.8;;;;;;;11.38;100;98729.58;;;;
2021/06/16 02:52:44;;;;;;;14.9;8;;;;;;;11.67;100;98729.88;;;;
2021/06/16 03:02:43;;;;;;;9.4;6.1;;;;;;;11.82;100;98740.3;;;;
2021/06/16 03:12:41;;;;;;;9.2;5.5;;;;;;;11.99;100;98753.08;;;;
2021/06/16 03:22:40;;;;;;;7.2;5.4;;;;;;;12.17;100;98762.84;;;;
2021/06/16 03:32:39;;;;;;;10.2;5.8;;;;;;;12.46;100;98764.99;;;;
2021/06/16 03:42:38;;;;;;;10.3;6.6;;;;;;;12.7;100;98775.36;;;;
2021/06/16 03:52:37;;;;;;;10.9;5;;;;;;;12.93;100;98777.6;;;;
2021/06/16 04:02:36;;;;;;;6.2;4.3;;;;;;;13.23;100;98773.16;;;;
2021/06/16 04:12:35;;;;;;;7.8;5.8;;;;;;;13.7;100;98776.75;;;;
2021/06/16 04:22:33;;;;;;;9.9;5.5;;;;;;;14.06;100;98785.22;;;;
2021/06/16 04:32:32;;;;;;;9.5;6.9;;;;;;;14.47;100;98794.64;;;;
2021/06/16 04:42:31;;;;;;;9.8;5.9;;;;;;;15.13;100;98792.91;;;;
2021/06/16 04:52:30;;;;;;;7.5;5.3;;;;;;;15.88;100;98789.01;;;;
2021/06/16 05:02:29;;;;;;;11;5.7;;;;;;;16.37;100;98789.84;;;;
2021/06/16 05:12:29;;;;;;;8.2;6.4;;;;;;;16.98;100;98790.58;;;;
2021/06/16 05:22:28;;;;;;;7.2;4.7;;;;;;;17.57;100;98809.81;;;;
2021/06/16 05:32:28;;;;;;;6.1;4.8;;;;;;;18.02;100;98812.17;;;;
2021/06/16 05:42:27;;;;;;;19.5;4.9;;;;;;;18.4;100;98802.58;;;;
2021/06/16 05:52:27;;;;;;;9.7;5.7;;;;;;;18.77;97.39648;98803.89;;;;
2021/06/16 06:02:26;;;;;;;12.1;6.3;;;;;;;19.1;94.25195;98806.16;;;;
2021/06/16 06:12:26;;;;;;;8.4;6;;;;;;;19.61;93.33008;98820.5;;;;
2021/06/16 06:22:26;;;;;;;7.6;5.2;;;;;;;19.9;90.75098;98821.84;;;;
2021/06/16 06:32:26;;;;;;;11.6;5.8;;;;;;;20.32;89.79004;98824.56;;;;
2021/06/16 06:42:26;;;;;;;15.4;6.4;;;;;;;20.84;90.32129;98827.35;;;;
2021/06/16 06:52:26;;;;;;;9;4.5;;;;;;;21.04;85.59082;98822.53;;;;
2021/06/16 07:02:26;;;;;;;7.9;5.6;;;;;;;21.46;84.6582;98828.61;;;;
2021/06/16 07:12:26;;;;;;;6.9;4.6;;;;;;;21.69;86.96191;98836.73;;;;
2021/06/16 07:22:26;;;;;;;6.8;3.5;;;;;;;21.93;85.78516;98835.45;;;;
2021/06/16 07:32:26;;;;;;;9.7;4.7;;;;;;;22.68;84.01953;98823.18;;;;
2021/06/16 07:42:26;;;;;;;11;4.7;;;;;;;22.71;82.18262;98820.45;;;;
2021/06/16 07:52:27;;;;;;;9.3;5.3;;;;;;;22.9;79.95703;98838.66;;;;
2021/06/16 08:02:29;;;;;;;7.6;4.8;;;;;;;23.43;77.61621;98837;;;;
2021/06/16 08:12:27;;;;;;;14.9;5.9;;;;;;;23.47;78.69043;98831.51;;;;
2021/06/16 08:22:27;;;;;;;20;5;;;;;;;23.98;78.41797;98842.31;;;;
2021/06/16 08:32:27;;;;;;;8.7;5.2;;;;;;;23.89;75.18164;98845.42;;;;
2021/06/16 08:42:28;;;;;;;8.2;4.4;;;;;;;24.15;76.62012;98840.8;;;;
2021/06/16 08:52:28;;;;;;;9.1;4.2;;;;;;;24.5;77.26172;98854.61;;;;
2021/06/16 09:02:28;;;;;;;9.8;5;;;;;;;24.49;71.35254;98851.06;;;;
2021/06/16 09:12:29;;;;;;;7.2;4.6;;;;;;;24.75;73.87891;98847.09;;;;
2021/06/16 09:22:29;;;;;;;9.5;4.6;;;;;;;24.95;73.01367;98856.58;;;;
2021/06/16 09:32:30;;;;;;;8.5;6.1;;;;;;;25.08;72.91602;98853.39;;;;
2021/06/16 09:42:31;;;;;;;9;5.1;;;;;;;25.2;71.80273;98855.74;;;;
2021/06/16 09:52:31;;;;;;;6.7;4.1;;;;;;;24.87;66.96094;98860.52;;;;
2021/06/16 10:02:32;;;;;;;16.9;6.1;;;;;;;25.33;67.25195;98852.16;;;;
2021/06/16 10:12:33;;;;;;;9.4;5.9;;;;;;;26;70.69043;98851.86;;;;
2021/06/16 10:22:33;;;;;;;7.5;5.5;;;;;;;25.48;67.88379;98839.86;;;;
2021/06/16 10:32:34;;;;;;;11.8;5.3;;;;;;;25.39;66.54688;98860.8;;;;
2021/06/16 10:42:49;;;;;;;7.7;5.4;;;;;;;26.01;65.83008;98852.66;;;;
2021/06/16 10:52:57;;;;;;;10;4.8;;;;;;;25.77;65.38477;98843.32;;;;
2021/06/16 11:02:36;;;;;;;12.6;4.6;;;;;;;26.22;62.98438;98837.95;;;;
2021/06/16 11:12:36;;;;;;;11.7;5.6;;;;;;;26.23;62.96191;98845.05;;;;
2021/06/16 11:22:37;;;;;;;7.8;5.5;;;;;;;26.57;64.5127;98843.2;;;;
2021/06/16 11:32:38;;;;;;;8.2;4.3;;;;;;;26.6;64.75195;98830.54;;;;
2021/06/16 11:42:39;;;;;;;7;4.1;;;;;;;26.78;66.1416;98823.67;;;;
2021/06/16 11:52:40;;;;;;;6.6;4.9;;;;;;;26.45;63.04004;98827.1;;;;
2021/06/16 12:02:40;;;;;;;8.1;4.3;;;;;;;26.84;66.36035;98821.27;;;;
2021/06/16 12:12:41;;;;;;;9.5;4.9;;;;;;;27.07;63.57324;98804.05;;;;
2021/06/16 12:22:42;;;;;;;7.3;4.9;;;;;;;27.07;61.52637;98804.05;;;;
2021/06/16 12:32:45;;;;;;;6.5;4.7;;;;;;;27.27;61.31934;98780.09;;;;
2021/06/16 12:42:44;;;;;;;9.3;4.3;;;;;;;27.47;60.25;98775.51;;;;
2021/06/16 12:52:45;;;;;;;6.6;4.2;;;;;;;27.17;61.49316;98775.47;;;;
2021/06/16 13:02:45;;;;;;;7.8;4.8;;;;;;;27.83;63.36133;98773.83;;;;
2021/06/16 13:12:46;;;;;;;13;3.4;;;;;;;27.21;57.85938;98767.91;;;;
2021/06/16 13:22:47;;;;;;;10.3;3.3;;;;;;;27.35;60.03418;98762.2;;;;
2021/06/16 13:32:48;;;;;;;7.7;4.1;;;;;;;27.76;58.94531;98765.63;;;;
2021/06/16 13:42:49;;;;;;;5.6;4;;;;;;;28.03;59.19238;98748.98;;;;
2021/06/16 13:52:50;;;;;;;10.2;4.3;;;;;;;27.74;61.08691;98747.83;;;;
2021/06/16 14:02:51;;;;;;;6.6;3.9;;;;;;;29.08;56.44141;98747.56;;;;
2021/06/16 14:12:53;;;;;;;10;3.6;;;;;;;28.87;57.62305;98734.89;;;;
2021/06/16 14:22:54;;;;;;;5;3.2;;;;;;;29.38;57.10645;98725.13;;;;
2021/06/16 14:32:53;;;;;;;5.1;3.2;;;;;;;29.64;55.25488;98726.95;;;;
2021/06/16 14:42:54;;;;;;;8.4;4.6;;;;;;;30.06;51.4707;98727.94;;;;
2021/06/16 14:52:57;;;;;;;5.7;3.5;;;;;;;30.9;50.85156;98716.61;;;;
2021/06/16 15:02:57;;;;;;;8.6;4.6;;;;;;;28.63;54.28027;98720.26;;;;
2021/06/16 15:12:58;;;;;;;9.6;4.1;;;;;;;28.22;54.79883;98714.27;;;;
2021/06/16 15:22:59;;;;;;;20.1;10.1;;;;;;;31.65;47.0332;98714.47;;;;
2021/06/16 15:33:01;;;;;;;14.9;4.8;;;;;;;34.24;38.08008;98727.03;;;;
2021/06/16 15:43:03;;;;;;;5;3;;;;;;;33.57;38.5166;98729.69;;;;
2021/06/16 15:53:06;;;;;;;5.7;3.1;;;;;;;31.71;43.6709;98718.25;;;;
2021/06/16 16:03:08;;;;;;;7.9;3.9;;;;;;;31.25;42.44434;98728.77;;;;
2021/06/16 16:13:08;;;;;;;5.9;2.9;;;;;;;34.14;38.34766;98738.66;;;;
2021/06/16 16:23:10;;;;;;;5.1;2.7;;;;;;;34.66;33.25488;98743.28;;;;
2021/06/16 16:33:12;;;;;;;6.5;2.6;;;;;;;32.64;36.1709;98734.32;;;;
2021/06/16 16:43:15;;;;;;;6.7;3.4;;;;;;;33.9;36.1748;98730.02;;;;
2021/06/16 16:53:16;;;;;;;6.1;3.2;;;;;;;34.18;33.94336;98730.91;;;;
2021/06/16 17:03:18;;;;;;;5.9;3.9;;;;;;;33.71;34.89648;98731.17;;;;
2021/06/16 17:13:20;;;;;;;6.4;3;;;;;;;30.8;40.46973;98720.47;;;;
2021/06/16 17:23:22;;;;;;;5.5;3.2;;;;;;;28.17;45.96387;98720.28;;;;
2021/06/16 17:33:23;;;;;;;6.8;3.6;;;;;;;29.38;44.20898;98730.69;;;;
2021/06/16 17:43:24;;;;;;;8.9;4.6;;;;;;;30.19;42.52539;98736.38;;;;
2021/06/16 17:53:27;;;;;;;6.9;3.3;;;;;;;30.51;41.30176;98735.6;;;;
2021/06/16 18:03:27;;;;;;;6.6;3.3;;;;;;;29.22;43.94434;98733.39;;;;
2021/06/16 18:13:29;;;;;;;8.5;5.2;;;;;;;26.86;49.61035;98733.94;;;;
2021/06/16 18:23:29;;;;;;;6.8;4.3;;;;;;;25.82;52.70996;98737.98;;;;
2021/06/16 18:33:30;;;;;;;10.1;5.9;;;;;;;24.62;57.65723;98743.16;;;;
2021/06/16 18:43:30;;;;;;;9.9;5.8;;;;;;;23.55;64.12988;98739.57;;;;
2021/06/16 18:53:30;;;;;;;10.3;6.3;;;;;;;22.66;69.77344;98751.31;;;;
2021/06/16 19:03:32;;;;;;;11.1;8.7;;;;;;;21.91;73.40234;98744.45;;;;
2021/06/16 19:13:30;;;;;;;14.3;6.8;;;;;;;21.28;77.14063;98761.79;;;;
2021/06/16 19:23:32;;;;;;;19;9.2;;;;;;;20.73;77.51855;98768.88;;;;
2021/06/16 19:33:32;;;;;;;10.7;7.7;;;;;;;20.43;82.58496;98768.05;;;;
2021/06/16 19:43:30;;;;;;;14.7;10.7;;;;;;;20.12;84.66992;98771.82;;;;
2021/06/16 19:53:30;;;;;;;27.7;15;;;;;;;19.88;86.04785;98783.13;;;;
2021/06/16 20:03:30;;;;;;;13.5;7.7;;;;;;;19.64;87.18652;98788.94;;;;
2021/06/16 20:13:29;;;;;;;15.5;8.8;;;;;;;19.47;89.39258;98788.21;;;;
2021/06/16 20:23:29;;;;;;;11.6;7.5;;;;;;;19.29;91.60254;98784.33;;;;
2021/06/16 20:33:29;;;;;;;14.1;8.8;;;;;;;19.07;92.72656;98796.75;;;;
2021/06/16 20:43:28;;;;;;;9.1;7.9;;;;;;;18.86;94.08887;98807.21;;;;
2021/06/16 20:53:28;;;;;;;11.4;8.9;;;;;;;18.7;94.25;98820.12;;;;
2021/06/16 21:03:27;;;;;;;11.6;8.1;;;;;;;18.6;94.83496;98831.58;;;;
2021/06/16 21:13:27;;;;;;;11.3;8.6;;;;;;;18.44;94.90137;98833.48;;;;
2021/06/16 21:23:27;;;;;;;15.2;7.4;;;;;;;18.28;94.83301;98838.16;;;;
2021/06/16 21:33:27;;;;;;;12.1;8.4;;;;;;;18.12;95.73535;98840.09;;;;
2021/06/16 21:43:26;;;;;;;15.9;9.2;;;;;;;17.72;100;98848.36;;;;
2021/06/16 21:53:25;;;;;;;12.6;9;;;;;;;17.47;100;98847.64;;;;
2021/06/16 22:03:24;;;;;;;16;7.8;;;;;;;17.23;100;98858.61;;;;
2021/06/16 22:13:24;;;;;;;22.3;8.8;;;;;;;17.01;100;98855.24;;;;
2021/06/16 22:23:23;;;;;;;12.6;8.9;;;;;;;16.76;100;98872.75;;;;
2021/06/16 22:33:22;;;;;;;12.2;8;;;;;;;16.53;100;98863.41;;;;
2021/06/16 22:43:22;;;;;;;9;7.9;;;;;;;16.33;100;98862.38;;;;
2021/06/16 22:53:21;;;;;;;10.7;8.4;;;;;;;16.14;100;98861.34;;;;
2021/06/16 23:03:21;;;;;;;12.3;8.9;;;;;;;16.06;100;98852.14;;;;
2021/06/16 23:13:19;;;;;;;12.1;9.3;;;;;;;16.22;100;98846.83;;;;
2021/06/16 23:23:18;;;;;;;9.3;7.2;;;;;;;16.09;100;98857.7;;;;
2021/06/16 23:33:18;;;;;;;9.5;8.4;;;;;;;15.92;100;98852.45;;;;
2021/06/16 23:43:17;;;;;;;13;9.1;;;;;;;15.78;100;98854.66;;;;
2021/06/16 23:53:16;;;;;;;15.2;9.4;;;;;;;15.57;100;98853.91;;;;
